sensor_id;sensor_type;location;lat;lon;timestamp;P1;durP1;ratioP1;P2;durP2;ratioP2
4186;SDS011;2107;52.306;10.484;2023-04-30T00:02:25;0.10;;;0.10;;
4186;SDS011;2107;52.306;10.484;2023-04-30T00:04:52;0.10;;;0.10;;
4186;SDS011;2107;52.306;10.484;2023-04-30T00:07:19;0.10;;;0.10;;
4186;SDS011;2107;52.306;10.484;2023-04-30T00:09:47;0.10;;;0.10;;
4186;SDS011;2107;52.306;10.484;2023-04-30T00:12:15;0.10;;;0.10;;
4186;SDS011;2107;52.306;10.484;2023-04-30T00:14:42;0.10;;;0.10;;
4186;SDS011;2107;52.306;10.484;2023-04-30T00:17:08;0.00;;;0.00;;
4186;SDS011;2107;52.306;10.484;2023-04-30T00:19:35;0.10;;;0.10;;
4186;SDS011;2107;52.306;10.484;2023-04-30T00:22:02;0.10;;;0.10;;
4186;SDS011;2107;52.306;10.484;2023-04-30T00:24:29;0.10;;;0.10;;
4186;SDS011;2107;52.306;10.484;2023-04-30T00:26:57;0.10;;;0.10;;
4186;SDS011;2107;52.306;10.484;2023-04-30T00:29:24;0.10;;;0.10;;
4186;SDS011;2107;52.306;10.484;2023-04-30T00:31:51;0.10;;;0.10;;
4186;SDS011;2107;52.306;10.484;2023-04-30T00:34:18;0.10;;;0.10;;
4186;SDS011;2107;52.306;10.484;2023-04-30T00:36:45;0.10;;;0.10;;
4186;SDS011;2107;52.306;10.484;2023-04-30T00:39:11;0.10;;;0.10;;
4186;SDS011;2107;52.306;10.484;2023-04-30T00:41:39;0.10;;;0.10;;
4186;SDS011;2107;52.306;10.484;2023-04-30T00:44:08;0.10;;;0.10;;
4186;SDS011;2107;52.306;10.484;2023-04-30T00:46:34;0.10;;;0.10;;
4186;SDS011;2107;52.306;10.484;2023-04-30T00:49:01;0.10;;;0.10;;
4186;SDS011;2107;52.306;10.484;2023-04-30T00:51:29;0.10;;;0.10;;
4186;SDS011;2107;52.306;10.484;2023-04-30T00:53:57;0.10;;;0.10;;
4186;SDS011;2107;52.306;10.484;2023-04-30T00:56:26;0.10;;;0.10;;
4186;SDS011;2107;52.306;10.484;2023-04-30T00:58:54;0.10;;;0.10;;
4186;SDS011;2107;52.306;10.484;2023-04-30T01:01:23;0.10;;;0.10;;
4186;SDS011;2107;52.306;10.484;2023-04-30T01:03:50;0.10;;;0.10;;
4186;SDS011;2107;52.306;10.484;2023-04-30T01:06:17;0.10;;;0.10;;
4186;SDS011;2107;52.306;10.484;2023-04-30T01:08:44;0.10;;;0.10;;
4186;SDS011;2107;52.306;10.484;2023-04-30T01:11:15;0.10;;;0.10;;
4186;SDS011;2107;52.306;10.484;2023-04-30T01:13:52;0.10;;;0.10;;
4186;SDS011;2107;52.306;10.484;2023-04-30T01:16:25;0.10;;;0.10;;
4186;SDS011;2107;52.306;10.484;2023-04-30T01:18:55;0.10;;;0.10;;
4186;SDS011;2107;52.306;10.484;2023-04-30T01:21:24;0.10;;;0.10;;
4186;SDS011;2107;52.306;10.484;2023-04-30T01:24:04;0.10;;;0.10;;
4186;SDS011;2107;52.306;10.484;2023-04-30T01:26:47;0.10;;;0.10;;
4186;SDS011;2107;52.306;10.484;2023-04-30T01:29:25;0.10;;;0.10;;
4186;SDS011;2107;52.306;10.484;2023-04-30T01:31:54;0.10;;;0.10;;
4186;SDS011;2107;52.306;10.484;2023-04-30T01:34:21;0.10;;;0.10;;
4186;SDS011;2107;52.306;10.484;2023-04-30T01:36:49;0.10;;;0.10;;
4186;SDS011;2107;52.306;10.484;2023-04-30T01:39:32;0.10;;;0.10;;
4186;SDS011;2107;52.306;10.484;2023-04-30T01:42:10;0.10;;;0.10;;
4186;SDS011;2107;52.306;10.484;2023-04-30T01:44:57;0.10;;;0.10;;
4186;SDS011;2107;52.306;10.484;2023-04-30T01:47:38;0.03;;;0.03;;
4186;SDS011;2107;52.306;10.484;2023-04-30T01:50:14;0.10;;;0.10;;
4186;SDS011;2107;52.306;10.484;2023-04-30T01:52:50;0.10;;;0.10;;
4186;SDS011;2107;52.306;10.484;2023-04-30T01:55:19;0.10;;;0.10;;
4186;SDS011;2107;52.306;10.484;2023-04-30T01:57:51;0.10;;;0.10;;
4186;SDS011;2107;52.306;10.484;2023-04-30T02:00:23;0.10;;;0.10;;
4186;SDS011;2107;52.306;10.484;2023-04-30T02:02:51;0.10;;;0.10;;
4186;SDS011;2107;52.306;10.484;2023-04-30T02:05:18;0.10;;;0.10;;
4186;SDS011;2107;52.306;10.484;2023-04-30T02:07:46;0.10;;;0.10;;
4186;SDS011;2107;52.306;10.484;2023-04-30T02:10:15;0.10;;;0.10;;
4186;SDS011;2107;52.306;10.484;2023-04-30T02:12:43;0.10;;;0.10;;
4186;SDS011;2107;52.306;10.484;2023-04-30T02:15:10;0.10;;;0.10;;
4186;SDS011;2107;52.306;10.484;2023-04-30T02:17:38;0.10;;;0.10;;
4186;SDS011;2107;52.306;10.484;2023-04-30T02:20:06;0.10;;;0.10;;
4186;SDS011;2107;52.306;10.484;2023-04-30T02:22:34;0.10;;;0.10;;
4186;SDS011;2107;52.306;10.484;2023-04-30T02:25:01;0.10;;;0.10;;
4186;SDS011;2107;52.306;10.484;2023-04-30T02:27:29;0.10;;;0.10;;
4186;SDS011;2107;52.306;10.484;2023-04-30T02:29:57;0.10;;;0.10;;
4186;SDS011;2107;52.306;10.484;2023-04-30T02:32:24;0.10;;;0.10;;
4186;SDS011;2107;52.306;10.484;2023-04-30T02:34:52;0.10;;;0.10;;
4186;SDS011;2107;52.306;10.484;2023-04-30T02:37:19;0.03;;;0.03;;
4186;SDS011;2107;52.306;10.484;2023-04-30T02:39:46;0.10;;;0.10;;
4186;SDS011;2107;52.306;10.484;2023-04-30T02:42:13;0.10;;;0.10;;
4186;SDS011;2107;52.306;10.484;2023-04-30T02:44:40;0.10;;;0.10;;
4186;SDS011;2107;52.306;10.484;2023-04-30T02:47:07;0.10;;;0.10;;
4186;SDS011;2107;52.306;10.484;2023-04-30T02:49:34;0.10;;;0.10;;
4186;SDS011;2107;52.306;10.484;2023-04-30T02:52:02;0.00;;;0.00;;
4186;SDS011;2107;52.306;10.484;2023-04-30T02:54:30;0.10;;;0.10;;
4186;SDS011;2107;52.306;10.484;2023-04-30T02:56:56;0.00;;;0.00;;
4186;SDS011;2107;52.306;10.484;2023-04-30T02:59:23;0.10;;;0.10;;
4186;SDS011;2107;52.306;10.484;2023-04-30T03:01:51;0.00;;;0.00;;
4186;SDS011;2107;52.306;10.484;2023-04-30T03:04:18;0.10;;;0.10;;
4186;SDS011;2107;52.306;10.484;2023-04-30T03:06:44;0.10;;;0.10;;
4186;SDS011;2107;52.306;10.484;2023-04-30T03:09:13;0.10;;;0.10;;
4186;SDS011;2107;52.306;10.484;2023-04-30T03:11:40;0.00;;;0.00;;
4186;SDS011;2107;52.306;10.484;2023-04-30T03:14:06;0.00;;;0.00;;
4186;SDS011;2107;52.306;10.484;2023-04-30T03:16:33;0.10;;;0.10;;
4186;SDS011;2107;52.306;10.484;2023-04-30T03:19:00;0.10;;;0.10;;
4186;SDS011;2107;52.306;10.484;2023-04-30T03:21:27;0.00;;;0.00;;
4186;SDS011;2107;52.306;10.484;2023-04-30T03:23:55;0.10;;;0.10;;
4186;SDS011;2107;52.306;10.484;2023-04-30T03:26:23;0.00;;;0.00;;
4186;SDS011;2107;52.306;10.484;2023-04-30T03:28:50;0.00;;;0.00;;
4186;SDS011;2107;52.306;10.484;2023-04-30T03:31:19;0.00;;;0.00;;
4186;SDS011;2107;52.306;10.484;2023-04-30T03:33:45;0.00;;;0.00;;
4186;SDS011;2107;52.306;10.484;2023-04-30T03:36:12;0.10;;;0.10;;
4186;SDS011;2107;52.306;10.484;2023-04-30T03:38:39;0.10;;;0.10;;
4186;SDS011;2107;52.306;10.484;2023-04-30T03:41:06;0.10;;;0.10;;
4186;SDS011;2107;52.306;10.484;2023-04-30T03:43:35;0.10;;;0.10;;
4186;SDS011;2107;52.306;10.484;2023-04-30T03:46:02;0.00;;;0.00;;
4186;SDS011;2107;52.306;10.484;2023-04-30T03:48:28;0.00;;;0.00;;
4186;SDS011;2107;52.306;10.484;2023-04-30T03:50:55;0.10;;;0.10;;
4186;SDS011;2107;52.306;10.484;2023-04-30T03:53:22;0.00;;;0.00;;
4186;SDS011;2107;52.306;10.484;2023-04-30T03:55:50;0.10;;;0.10;;
4186;SDS011;2107;52.306;10.484;2023-04-30T03:58:18;0.00;;;0.00;;
4186;SDS011;2107;52.306;10.484;2023-04-30T04:00:46;0.10;;;0.10;;
4186;SDS011;2107;52.306;10.484;2023-04-30T04:03:13;0.00;;;0.00;;
4186;SDS011;2107;52.306;10.484;2023-04-30T04:05:40;0.00;;;0.00;;
4186;SDS011;2107;52.306;10.484;2023-04-30T04:08:07;0.00;;;0.00;;
4186;SDS011;2107;52.306;10.484;2023-04-30T04:10:34;0.00;;;0.00;;
4186;SDS011;2107;52.306;10.484;2023-04-30T04:13:01;0.00;;;0.00;;
4186;SDS011;2107;52.306;10.484;2023-04-30T04:15:28;0.00;;;0.00;;
4186;SDS011;2107;52.306;10.484;2023-04-30T04:17:56;0.10;;;0.10;;
4186;SDS011;2107;52.306;10.484;2023-04-30T04:20:23;0.10;;;0.10;;
4186;SDS011;2107;52.306;10.484;2023-04-30T04:22:51;0.20;;;0.20;;
4186;SDS011;2107;52.306;10.484;2023-04-30T04:25:18;0.30;;;0.30;;
4186;SDS011;2107;52.306;10.484;2023-04-30T04:27:45;0.30;;;0.30;;
4186;SDS011;2107;52.306;10.484;2023-04-30T04:30:11;0.40;;;0.40;;
4186;SDS011;2107;52.306;10.484;2023-04-30T04:32:38;0.40;;;0.40;;
4186;SDS011;2107;52.306;10.484;2023-04-30T04:35:13;0.70;;;0.70;;
4186;SDS011;2107;52.306;10.484;2023-04-30T04:37:40;0.87;;;0.87;;
4186;SDS011;2107;52.306;10.484;2023-04-30T04:40:07;1.30;;;1.30;;
4186;SDS011;2107;52.306;10.484;2023-04-30T04:42:35;2.00;;;2.00;;
4186;SDS011;2107;52.306;10.484;2023-04-30T04:45:03;2.00;;;2.00;;
4186;SDS011;2107;52.306;10.484;2023-04-30T04:47:31;2.40;;;2.40;;
4186;SDS011;2107;52.306;10.484;2023-04-30T04:49:58;2.37;;;2.37;;
4186;SDS011;2107;52.306;10.484;2023-04-30T04:52:26;2.30;;;2.30;;
4186;SDS011;2107;52.306;10.484;2023-04-30T04:54:53;2.20;;;2.20;;
4186;SDS011;2107;52.306;10.484;2023-04-30T04:57:20;1.90;;;1.90;;
4186;SDS011;2107;52.306;10.484;2023-04-30T04:59:47;1.70;;;1.70;;
4186;SDS011;2107;52.306;10.484;2023-04-30T05:02:14;1.80;;;1.80;;
4186;SDS011;2107;52.306;10.484;2023-04-30T05:04:40;1.50;;;1.50;;
4186;SDS011;2107;52.306;10.484;2023-04-30T05:07:07;1.30;;;1.30;;
4186;SDS011;2107;52.306;10.484;2023-04-30T05:09:35;1.30;;;1.30;;
4186;SDS011;2107;52.306;10.484;2023-04-30T05:12:02;1.30;;;1.30;;
4186;SDS011;2107;52.306;10.484;2023-04-30T05:14:30;1.40;;;1.40;;
4186;SDS011;2107;52.306;10.484;2023-04-30T05:16:56;1.13;;;1.13;;
4186;SDS011;2107;52.306;10.484;2023-04-30T05:19:23;0.80;;;0.80;;
4186;SDS011;2107;52.306;10.484;2023-04-30T05:21:50;0.80;;;0.80;;
4186;SDS011;2107;52.306;10.484;2023-04-30T05:24:17;0.60;;;0.60;;
4186;SDS011;2107;52.306;10.484;2023-04-30T05:26:45;0.60;;;0.60;;
4186;SDS011;2107;52.306;10.484;2023-04-30T05:29:12;0.60;;;0.60;;
4186;SDS011;2107;52.306;10.484;2023-04-30T05:31:39;0.60;;;0.60;;
4186;SDS011;2107;52.306;10.484;2023-04-30T05:34:06;0.30;;;0.30;;
4186;SDS011;2107;52.306;10.484;2023-04-30T05:36:32;0.40;;;0.40;;
4186;SDS011;2107;52.306;10.484;2023-04-30T05:38:59;0.30;;;0.30;;
4186;SDS011;2107;52.306;10.484;2023-04-30T05:41:26;0.30;;;0.30;;
4186;SDS011;2107;52.306;10.484;2023-04-30T05:43:54;0.30;;;0.30;;
4186;SDS011;2107;52.306;10.484;2023-04-30T05:46:21;0.30;;;0.30;;
4186;SDS011;2107;52.306;10.484;2023-04-30T05:48:48;0.30;;;0.30;;
4186;SDS011;2107;52.306;10.484;2023-04-30T05:51:14;0.40;;;0.40;;
4186;SDS011;2107;52.306;10.484;2023-04-30T05:53:41;0.30;;;0.30;;
4186;SDS011;2107;52.306;10.484;2023-04-30T05:56:08;0.30;;;0.30;;
4186;SDS011;2107;52.306;10.484;2023-04-30T05:58:36;0.30;;;0.30;;
4186;SDS011;2107;52.306;10.484;2023-04-30T06:01:05;0.40;;;0.40;;
4186;SDS011;2107;52.306;10.484;2023-04-30T06:03:35;0.30;;;0.30;;
4186;SDS011;2107;52.306;10.484;2023-04-30T06:06:02;0.30;;;0.30;;
4186;SDS011;2107;52.306;10.484;2023-04-30T06:08:29;0.40;;;0.40;;
4186;SDS011;2107;52.306;10.484;2023-04-30T06:10:56;0.40;;;0.40;;
4186;SDS011;2107;52.306;10.484;2023-04-30T06:13:23;0.47;;;0.47;;
4186;SDS011;2107;52.306;10.484;2023-04-30T06:15:50;0.40;;;0.40;;
4186;SDS011;2107;52.306;10.484;2023-04-30T06:18:18;0.40;;;0.40;;
4186;SDS011;2107;52.306;10.484;2023-04-30T06:20:45;0.40;;;0.40;;
4186;SDS011;2107;52.306;10.484;2023-04-30T06:23:12;0.30;;;0.30;;
4186;SDS011;2107;52.306;10.484;2023-04-30T06:25:38;0.40;;;0.40;;
4186;SDS011;2107;52.306;10.484;2023-04-30T06:28:05;0.50;;;0.50;;
4186;SDS011;2107;52.306;10.484;2023-04-30T06:30:34;0.40;;;0.40;;
4186;SDS011;2107;52.306;10.484;2023-04-30T06:33:01;0.50;;;0.50;;
4186;SDS011;2107;52.306;10.484;2023-04-30T06:35:29;0.50;;;0.50;;
4186;SDS011;2107;52.306;10.484;2023-04-30T06:37:56;0.40;;;0.40;;
4186;SDS011;2107;52.306;10.484;2023-04-30T06:40:23;0.43;;;0.43;;
4186;SDS011;2107;52.306;10.484;2023-04-30T06:42:50;0.30;;;0.30;;
4186;SDS011;2107;52.306;10.484;2023-04-30T06:45:18;0.40;;;0.40;;
4186;SDS011;2107;52.306;10.484;2023-04-30T06:47:45;0.30;;;0.30;;
4186;SDS011;2107;52.306;10.484;2023-04-30T06:50:12;0.40;;;0.40;;
4186;SDS011;2107;52.306;10.484;2023-04-30T06:52:41;0.30;;;0.30;;
4186;SDS011;2107;52.306;10.484;2023-04-30T06:55:08;0.43;;;0.43;;
4186;SDS011;2107;52.306;10.484;2023-04-30T06:57:35;0.40;;;0.40;;
4186;SDS011;2107;52.306;10.484;2023-04-30T07:00:02;0.40;;;0.40;;
4186;SDS011;2107;52.306;10.484;2023-04-30T07:02:30;0.43;;;0.43;;
4186;SDS011;2107;52.306;10.484;2023-04-30T07:04:57;0.60;;;0.60;;
4186;SDS011;2107;52.306;10.484;2023-04-30T07:07:24;0.50;;;0.50;;
4186;SDS011;2107;52.306;10.484;2023-04-30T07:09:52;0.50;;;0.50;;
4186;SDS011;2107;52.306;10.484;2023-04-30T07:12:19;0.60;;;0.60;;
4186;SDS011;2107;52.306;10.484;2023-04-30T07:14:46;0.40;;;0.40;;
4186;SDS011;2107;52.306;10.484;2023-04-30T07:17:13;0.50;;;0.50;;
4186;SDS011;2107;52.306;10.484;2023-04-30T07:19:40;0.40;;;0.40;;
4186;SDS011;2107;52.306;10.484;2023-04-30T07:22:07;0.40;;;0.40;;
4186;SDS011;2107;52.306;10.484;2023-04-30T07:24:34;0.40;;;0.40;;
4186;SDS011;2107;52.306;10.484;2023-04-30T07:27:02;0.40;;;0.40;;
4186;SDS011;2107;52.306;10.484;2023-04-30T07:29:31;0.40;;;0.40;;
4186;SDS011;2107;52.306;10.484;2023-04-30T07:31:58;0.50;;;0.50;;
4186;SDS011;2107;52.306;10.484;2023-04-30T07:34:25;0.40;;;0.40;;
4186;SDS011;2107;52.306;10.484;2023-04-30T07:36:52;0.40;;;0.40;;
4186;SDS011;2107;52.306;10.484;2023-04-30T07:39:18;0.40;;;0.40;;
4186;SDS011;2107;52.306;10.484;2023-04-30T07:41:45;0.37;;;0.37;;
4186;SDS011;2107;52.306;10.484;2023-04-30T07:44:13;0.30;;;0.30;;
4186;SDS011;2107;52.306;10.484;2023-04-30T07:46:40;0.40;;;0.40;;
4186;SDS011;2107;52.306;10.484;2023-04-30T07:49:07;0.40;;;0.40;;
4186;SDS011;2107;52.306;10.484;2023-04-30T07:51:34;0.40;;;0.40;;
4186;SDS011;2107;52.306;10.484;2023-04-30T07:54:01;0.40;;;0.40;;
4186;SDS011;2107;52.306;10.484;2023-04-30T07:56:28;0.50;;;0.50;;
4186;SDS011;2107;52.306;10.484;2023-04-30T07:58:55;0.40;;;0.40;;
4186;SDS011;2107;52.306;10.484;2023-04-30T08:01:24;0.50;;;0.50;;
4186;SDS011;2107;52.306;10.484;2023-04-30T08:03:51;0.40;;;0.40;;
4186;SDS011;2107;52.306;10.484;2023-04-30T08:06:18;0.40;;;0.40;;
4186;SDS011;2107;52.306;10.484;2023-04-30T08:08:45;0.40;;;0.40;;
4186;SDS011;2107;52.306;10.484;2023-04-30T08:11:11;0.40;;;0.40;;
4186;SDS011;2107;52.306;10.484;2023-04-30T08:13:39;0.30;;;0.30;;
4186;SDS011;2107;52.306;10.484;2023-04-30T08:16:06;0.60;;;0.60;;
4186;SDS011;2107;52.306;10.484;2023-04-30T08:18:35;0.50;;;0.50;;
4186;SDS011;2107;52.306;10.484;2023-04-30T08:21:03;0.50;;;0.50;;
4186;SDS011;2107;52.306;10.484;2023-04-30T08:23:30;0.50;;;0.50;;
4186;SDS011;2107;52.306;10.484;2023-04-30T08:25:57;0.40;;;0.40;;
4186;SDS011;2107;52.306;10.484;2023-04-30T08:28:24;0.47;;;0.47;;
4186;SDS011;2107;52.306;10.484;2023-04-30T08:30:51;0.50;;;0.50;;
4186;SDS011;2107;52.306;10.484;2023-04-30T08:33:18;0.60;;;0.60;;
4186;SDS011;2107;52.306;10.484;2023-04-30T08:35:46;0.60;;;0.60;;
4186;SDS011;2107;52.306;10.484;2023-04-30T08:38:13;0.60;;;0.60;;
4186;SDS011;2107;52.306;10.484;2023-04-30T08:40:40;0.50;;;0.50;;
4186;SDS011;2107;52.306;10.484;2023-04-30T08:43:07;0.50;;;0.50;;
4186;SDS011;2107;52.306;10.484;2023-04-30T08:45:35;0.40;;;0.40;;
4186;SDS011;2107;52.306;10.484;2023-04-30T08:48:04;0.50;;;0.50;;
4186;SDS011;2107;52.306;10.484;2023-04-30T08:50:32;0.50;;;0.50;;
4186;SDS011;2107;52.306;10.484;2023-04-30T08:53:01;0.40;;;0.40;;
4186;SDS011;2107;52.306;10.484;2023-04-30T08:55:28;0.40;;;0.40;;
4186;SDS011;2107;52.306;10.484;2023-04-30T08:57:55;0.40;;;0.40;;
4186;SDS011;2107;52.306;10.484;2023-04-30T09:00:22;0.30;;;0.30;;
4186;SDS011;2107;52.306;10.484;2023-04-30T09:02:50;0.40;;;0.40;;
4186;SDS011;2107;52.306;10.484;2023-04-30T09:05:17;0.40;;;0.40;;
4186;SDS011;2107;52.306;10.484;2023-04-30T09:07:44;0.50;;;0.50;;
4186;SDS011;2107;52.306;10.484;2023-04-30T09:10:16;0.50;;;0.50;;
4186;SDS011;2107;52.306;10.484;2023-04-30T09:12:46;0.47;;;0.47;;
4186;SDS011;2107;52.306;10.484;2023-04-30T09:15:24;0.30;;;0.30;;
4186;SDS011;2107;52.306;10.484;2023-04-30T09:17:59;0.30;;;0.30;;
4186;SDS011;2107;52.306;10.484;2023-04-30T09:20:31;0.30;;;0.30;;
4186;SDS011;2107;52.306;10.484;2023-04-30T09:23:04;0.50;;;0.50;;
4186;SDS011;2107;52.306;10.484;2023-04-30T09:25:38;0.40;;;0.40;;
4186;SDS011;2107;52.306;10.484;2023-04-30T09:28:06;0.40;;;0.40;;
4186;SDS011;2107;52.306;10.484;2023-04-30T09:30:34;0.40;;;0.40;;
4186;SDS011;2107;52.306;10.484;2023-04-30T09:33:01;0.30;;;0.30;;
4186;SDS011;2107;52.306;10.484;2023-04-30T09:35:28;0.37;;;0.37;;
4186;SDS011;2107;52.306;10.484;2023-04-30T09:37:56;0.40;;;0.40;;
4186;SDS011;2107;52.306;10.484;2023-04-30T09:40:31;0.40;;;0.40;;
4186;SDS011;2107;52.306;10.484;2023-04-30T09:43:01;0.33;;;0.33;;
4186;SDS011;2107;52.306;10.484;2023-04-30T09:45:37;0.40;;;0.40;;
4186;SDS011;2107;52.306;10.484;2023-04-30T09:48:05;0.50;;;0.50;;
4186;SDS011;2107;52.306;10.484;2023-04-30T09:50:36;0.50;;;0.50;;
4186;SDS011;2107;52.306;10.484;2023-04-30T09:53:04;0.30;;;0.30;;
4186;SDS011;2107;52.306;10.484;2023-04-30T09:55:32;0.30;;;0.30;;
4186;SDS011;2107;52.306;10.484;2023-04-30T09:58:03;0.40;;;0.40;;
4186;SDS011;2107;52.306;10.484;2023-04-30T10:00:31;0.20;;;0.20;;
4186;SDS011;2107;52.306;10.484;2023-04-30T10:03:00;0.20;;;0.20;;
4186;SDS011;2107;52.306;10.484;2023-04-30T10:05:30;0.30;;;0.30;;
4186;SDS011;2107;52.306;10.484;2023-04-30T10:07:59;0.30;;;0.30;;
4186;SDS011;2107;52.306;10.484;2023-04-30T10:10:27;0.30;;;0.30;;
4186;SDS011;2107;52.306;10.484;2023-04-30T10:13:01;0.30;;;0.30;;
4186;SDS011;2107;52.306;10.484;2023-04-30T10:15:33;0.40;;;0.40;;
4186;SDS011;2107;52.306;10.484;2023-04-30T10:18:04;0.40;;;0.40;;
4186;SDS011;2107;52.306;10.484;2023-04-30T10:20:36;0.30;;;0.30;;
4186;SDS011;2107;52.306;10.484;2023-04-30T10:23:05;0.20;;;0.20;;
4186;SDS011;2107;52.306;10.484;2023-04-30T10:25:32;0.20;;;0.20;;
4186;SDS011;2107;52.306;10.484;2023-04-30T10:27:59;0.30;;;0.30;;
4186;SDS011;2107;52.306;10.484;2023-04-30T10:30:27;0.30;;;0.30;;
4186;SDS011;2107;52.306;10.484;2023-04-30T10:32:56;0.30;;;0.30;;
4186;SDS011;2107;52.306;10.484;2023-04-30T10:35:32;0.47;;;0.47;;
4186;SDS011;2107;52.306;10.484;2023-04-30T10:38:07;0.53;;;0.53;;
4186;SDS011;2107;52.306;10.484;2023-04-30T10:40:38;0.60;;;0.60;;
4186;SDS011;2107;52.306;10.484;2023-04-30T10:43:04;0.50;;;0.50;;
4186;SDS011;2107;52.306;10.484;2023-04-30T10:45:36;0.60;;;0.60;;
4186;SDS011;2107;52.306;10.484;2023-04-30T10:48:07;0.60;;;0.60;;
4186;SDS011;2107;52.306;10.484;2023-04-30T10:50:38;0.60;;;0.60;;
4186;SDS011;2107;52.306;10.484;2023-04-30T10:53:06;0.60;;;0.60;;
4186;SDS011;2107;52.306;10.484;2023-04-30T10:55:43;0.70;;;0.70;;
4186;SDS011;2107;52.306;10.484;2023-04-30T11:01:07;0.70;;;0.70;;
4186;SDS011;2107;52.306;10.484;2023-04-30T11:03:35;0.70;;;0.70;;
4186;SDS011;2107;52.306;10.484;2023-04-30T11:06:07;0.50;;;0.50;;
4186;SDS011;2107;52.306;10.484;2023-04-30T11:08:34;0.60;;;0.60;;
4186;SDS011;2107;52.306;10.484;2023-04-30T11:11:02;0.50;;;0.50;;
4186;SDS011;2107;52.306;10.484;2023-04-30T11:13:39;0.60;;;0.60;;
4186;SDS011;2107;52.306;10.484;2023-04-30T11:16:08;0.50;;;0.50;;
4186;SDS011;2107;52.306;10.484;2023-04-30T11:18:40;0.40;;;0.40;;
4186;SDS011;2107;52.306;10.484;2023-04-30T11:21:07;0.40;;;0.40;;
4186;SDS011;2107;52.306;10.484;2023-04-30T11:23:35;0.40;;;0.40;;
4186;SDS011;2107;52.306;10.484;2023-04-30T11:26:05;0.40;;;0.40;;
4186;SDS011;2107;52.306;10.484;2023-04-30T11:28:33;0.40;;;0.40;;
4186;SDS011;2107;52.306;10.484;2023-04-30T11:31:00;0.40;;;0.40;;
4186;SDS011;2107;52.306;10.484;2023-04-30T11:33:29;0.30;;;0.30;;
4186;SDS011;2107;52.306;10.484;2023-04-30T11:36:00;0.30;;;0.30;;
4186;SDS011;2107;52.306;10.484;2023-04-30T11:38:28;0.50;;;0.50;;
4186;SDS011;2107;52.306;10.484;2023-04-30T11:40:55;0.50;;;0.50;;
4186;SDS011;2107;52.306;10.484;2023-04-30T11:43:23;0.40;;;0.40;;
4186;SDS011;2107;52.306;10.484;2023-04-30T11:45:58;0.50;;;0.50;;
4186;SDS011;2107;52.306;10.484;2023-04-30T11:48:32;0.30;;;0.30;;
4186;SDS011;2107;52.306;10.484;2023-04-30T11:51:04;0.50;;;0.50;;
4186;SDS011;2107;52.306;10.484;2023-04-30T11:53:38;0.50;;;0.50;;
4186;SDS011;2107;52.306;10.484;2023-04-30T11:56:06;0.50;;;0.50;;
4186;SDS011;2107;52.306;10.484;2023-04-30T11:58:33;0.50;;;0.50;;
4186;SDS011;2107;52.306;10.484;2023-04-30T12:01:02;0.60;;;0.60;;
4186;SDS011;2107;52.306;10.484;2023-04-30T12:03:29;0.50;;;0.50;;
4186;SDS011;2107;52.306;10.484;2023-04-30T12:05:58;0.70;;;0.70;;
4186;SDS011;2107;52.306;10.484;2023-04-30T12:08:25;0.70;;;0.70;;
4186;SDS011;2107;52.306;10.484;2023-04-30T12:10:52;0.80;;;0.80;;
4186;SDS011;2107;52.306;10.484;2023-04-30T12:13:19;0.50;;;0.50;;
4186;SDS011;2107;52.306;10.484;2023-04-30T12:15:56;0.43;;;0.43;;
4186;SDS011;2107;52.306;10.484;2023-04-30T12:18:24;0.50;;;0.50;;
4186;SDS011;2107;52.306;10.484;2023-04-30T12:20:52;0.50;;;0.50;;
4186;SDS011;2107;52.306;10.484;2023-04-30T12:23:19;0.50;;;0.50;;
4186;SDS011;2107;52.306;10.484;2023-04-30T12:25:46;0.60;;;0.60;;
4186;SDS011;2107;52.306;10.484;2023-04-30T12:28:13;0.50;;;0.50;;
4186;SDS011;2107;52.306;10.484;2023-04-30T12:30:41;0.70;;;0.70;;
4186;SDS011;2107;52.306;10.484;2023-04-30T12:33:09;0.50;;;0.50;;
4186;SDS011;2107;52.306;10.484;2023-04-30T12:35:36;0.63;;;0.63;;
4186;SDS011;2107;52.306;10.484;2023-04-30T12:38:09;0.50;;;0.50;;
4186;SDS011;2107;52.306;10.484;2023-04-30T12:40:36;0.50;;;0.50;;
4186;SDS011;2107;52.306;10.484;2023-04-30T12:43:05;0.50;;;0.50;;
4186;SDS011;2107;52.306;10.484;2023-04-30T12:45:43;0.60;;;0.60;;
4186;SDS011;2107;52.306;10.484;2023-04-30T12:48:11;0.50;;;0.50;;
4186;SDS011;2107;52.306;10.484;2023-04-30T12:50:39;0.50;;;0.50;;
4186;SDS011;2107;52.306;10.484;2023-04-30T12:53:07;0.50;;;0.50;;
4186;SDS011;2107;52.306;10.484;2023-04-30T12:55:35;0.40;;;0.40;;
4186;SDS011;2107;52.306;10.484;2023-04-30T12:58:06;0.60;;;0.60;;
4186;SDS011;2107;52.306;10.484;2023-04-30T13:00:44;0.50;;;0.50;;
4186;SDS011;2107;52.306;10.484;2023-04-30T13:03:12;0.70;;;0.70;;
4186;SDS011;2107;52.306;10.484;2023-04-30T13:05:40;0.60;;;0.60;;
4186;SDS011;2107;52.306;10.484;2023-04-30T13:08:12;0.50;;;0.50;;
4186;SDS011;2107;52.306;10.484;2023-04-30T13:10:40;0.53;;;0.53;;
4186;SDS011;2107;52.306;10.484;2023-04-30T13:13:07;0.70;;;0.70;;
4186;SDS011;2107;52.306;10.484;2023-04-30T13:15:35;0.80;;;0.80;;
4186;SDS011;2107;52.306;10.484;2023-04-30T13:18:02;0.60;;;0.60;;
4186;SDS011;2107;52.306;10.484;2023-04-30T13:20:29;0.70;;;0.70;;
4186;SDS011;2107;52.306;10.484;2023-04-30T13:22:55;0.70;;;0.70;;
4186;SDS011;2107;52.306;10.484;2023-04-30T13:25:22;0.70;;;0.70;;
4186;SDS011;2107;52.306;10.484;2023-04-30T13:27:50;0.80;;;0.80;;
4186;SDS011;2107;52.306;10.484;2023-04-30T13:30:17;0.80;;;0.80;;
4186;SDS011;2107;52.306;10.484;2023-04-30T13:32:44;0.80;;;0.80;;
4186;SDS011;2107;52.306;10.484;2023-04-30T13:35:11;0.60;;;0.60;;
4186;SDS011;2107;52.306;10.484;2023-04-30T13:37:38;0.70;;;0.70;;
4186;SDS011;2107;52.306;10.484;2023-04-30T13:40:05;0.73;;;0.73;;
4186;SDS011;2107;52.306;10.484;2023-04-30T13:42:33;0.70;;;0.70;;
4186;SDS011;2107;52.306;10.484;2023-04-30T13:45:03;0.80;;;0.80;;
4186;SDS011;2107;52.306;10.484;2023-04-30T13:47:31;0.80;;;0.80;;
4186;SDS011;2107;52.306;10.484;2023-04-30T13:49:58;0.70;;;0.70;;
4186;SDS011;2107;52.306;10.484;2023-04-30T13:52:25;0.73;;;0.73;;
4186;SDS011;2107;52.306;10.484;2023-04-30T13:54:51;0.70;;;0.70;;
4186;SDS011;2107;52.306;10.484;2023-04-30T13:57:18;0.80;;;0.80;;
4186;SDS011;2107;52.306;10.484;2023-04-30T13:59:45;0.70;;;0.70;;
4186;SDS011;2107;52.306;10.484;2023-04-30T14:02:14;0.77;;;0.77;;
4186;SDS011;2107;52.306;10.484;2023-04-30T14:04:41;0.80;;;0.80;;
4186;SDS011;2107;52.306;10.484;2023-04-30T14:07:08;0.60;;;0.60;;
4186;SDS011;2107;52.306;10.484;2023-04-30T14:09:35;0.60;;;0.60;;
4186;SDS011;2107;52.306;10.484;2023-04-30T14:12:02;0.60;;;0.60;;
4186;SDS011;2107;52.306;10.484;2023-04-30T14:14:29;0.70;;;0.70;;
4186;SDS011;2107;52.306;10.484;2023-04-30T14:16:55;0.60;;;0.60;;
4186;SDS011;2107;52.306;10.484;2023-04-30T14:19:24;0.60;;;0.60;;
4186;SDS011;2107;52.306;10.484;2023-04-30T14:21:51;0.50;;;0.50;;
4186;SDS011;2107;52.306;10.484;2023-04-30T14:24:17;0.50;;;0.50;;
4186;SDS011;2107;52.306;10.484;2023-04-30T14:26:44;0.50;;;0.50;;
4186;SDS011;2107;52.306;10.484;2023-04-30T14:29:11;0.50;;;0.50;;
4186;SDS011;2107;52.306;10.484;2023-04-30T14:31:38;0.40;;;0.40;;
4186;SDS011;2107;52.306;10.484;2023-04-30T14:34:05;0.40;;;0.40;;
4186;SDS011;2107;52.306;10.484;2023-04-30T14:36:34;0.40;;;0.40;;
4186;SDS011;2107;52.306;10.484;2023-04-30T14:39:02;0.40;;;0.40;;
4186;SDS011;2107;52.306;10.484;2023-04-30T14:41:32;0.40;;;0.40;;
4186;SDS011;2107;52.306;10.484;2023-04-30T14:44:00;0.40;;;0.40;;
4186;SDS011;2107;52.306;10.484;2023-04-30T14:46:28;0.50;;;0.50;;
4186;SDS011;2107;52.306;10.484;2023-04-30T14:48:55;0.50;;;0.50;;
4186;SDS011;2107;52.306;10.484;2023-04-30T14:51:22;0.50;;;0.50;;
4186;SDS011;2107;52.306;10.484;2023-04-30T14:53:50;0.60;;;0.60;;
4186;SDS011;2107;52.306;10.484;2023-04-30T14:56:17;0.50;;;0.50;;
4186;SDS011;2107;52.306;10.484;2023-04-30T14:58:44;0.60;;;0.60;;
4186;SDS011;2107;52.306;10.484;2023-04-30T15:01:11;0.50;;;0.50;;
4186;SDS011;2107;52.306;10.484;2023-04-30T15:03:37;0.60;;;0.60;;
4186;SDS011;2107;52.306;10.484;2023-04-30T15:06:04;0.60;;;0.60;;
4186;SDS011;2107;52.306;10.484;2023-04-30T15:08:31;0.50;;;0.50;;
4186;SDS011;2107;52.306;10.484;2023-04-30T15:10:59;0.40;;;0.40;;